Terminal Aerodrome Forecast
Issued by NWS North Platte, NE

Home | Current Version | Previous Version | Graphics & Text | Print | Product List | Glossary On
Versions: 1 2 3 4 5 6 7 8 9 10 11 12 13 14 15 16 17 18 19 20
000
FTUS43 KLBF 202300
TAFVTN
TAF
KVTN 202320Z 2100/2124 15006KT P6SM FEW150
     FM210200 VRB05KT P6SM SCT150
     FM211200 24006KT P6SM BKN150
     FM211900 24011G18KT P6SM BKN150=

USA.gov is the U.S. government's official web portal to all federal, state and local government web resources and services.